KIFA

Details ICAO KIFA
Name IOWA FALLS MUNI
Region United States
Timezone America/Chicago (UTC-6.0)
Plans Departing 0
Arriving 1
Stats Elevation 1,137 ft / 347 m (AMSL)
Location 42.470773° -93.269941°
Runways 1
Magnetic Variation 0.458° E
Sunrise 2017-12-15 13:37:14 UTC / 2017-12-15 07:37:14 Local
Sunset 2017-12-15 22:42:15 UTC / 2017-12-15 16:42:15 Local
Advertisement - Login to hide

Runways

ID Width Length Bearing (true) Bearing (mag) Surface Threshold Offset Overrun Length
13 75 ft / 23 m 3,999 ft / 1,219 m 135.31° 134.85° Asphalt 0 ft / 0 m 0 ft / 0 m
31 75 ft / 23 m 3,999 ft / 1,219 m 315.32° 314.86° Asphalt 0 ft / 0 m 0 ft / 0 m

Map

Weather


0- 5 10 15 20 25 30 35+ Temperature / ° C

Clouds and Precipitation
Forecast for 2017-12-15 12:00 UTC. Updated an hour ago

Ground ~20,000 ft ~40,000 ft Winds

METAR

KIFA 151035Z AUTO 24008KT 10SM SCT043 OVC060 M04/M06 A3000 RMK AO2 T10431059

TAF

Not found

Frequencies

Unicom 122.80 MHz CTAF/UNICOM
Approach 118.90 MHz WATERLOO APP/DEP
Warning: Do not use this data for real-world aviation or navigation. No guarantee of current accuracy is given.